KMCI/MCI METAR and TAF weather

Enter ICAO airport designator
Station Type Date Time Source
KMCI METAR 2021/05/15 01:53 UTC NOAA

KMCI 150153Z 21010KT 10SM BKN075 20/09 A3010 RMK AO2 SLP188 T02000089


Station Type Date Time Source
KMCI Decoded METAR 2021/05/15 01:53 UTC NOAA

KANSAS CITY INTERNATIONAL AIRPORT, MO, United States (KMCI) 39-18N 94-44W 320M
May 14, 2021 - 09:53 PM EDT / 2021.05.15 0153 UTC
Wind: from the SSW (210 degrees) at 12 MPH (10 KT):0
Visibility: 10 mile(s):0
Sky conditions: mostly cloudy
Temperature: 68.0 F (20.0 C)
Dew Point: 48.0 F (8.9 C)
Relative Humidity: 48%
Pressure (altimeter): 30.1 in. Hg (1019 hPa)
ob: KMCI 150153Z 21010KT 10SM BKN075 20/09 A3010 RMK AO2 SLP188 T02000089
cycle: 2

Station Type Date Time Source
KMCI TAF 2021/05/14 18:21 UTC NOAA

TAF KMCI 141720Z 1418/1518 17009KT P6SM BKN070
FM150900 18009KT 6SM -RA BR OVC035
FM151200 19011KT 6SM -RA BR BKN020
FM151400 18008KT 3SM -RA BR OVC006

Example: see airport list